createdAt,value
2022-08-22T00:01:36.552Z,0.30
2022-08-22T00:02:48.150Z,0.40
2022-08-22T00:03:01.450Z,0.30
2022-08-22T00:03:09.593Z,0.22
2022-08-22T00:04:20.905Z,0.43
2022-08-22T00:07:13.346Z,0.40
2022-08-22T00:10:07.733Z,0.40
2022-08-22T00:12:58.023Z,0.40
2022-08-22T00:15:43.485Z,0.45
2022-08-22T00:18:21.709Z,0.30
2022-08-22T00:21:08.315Z,0.40
2022-08-22T00:23:52.565Z,0.40
2022-08-22T00:26:45.680Z,0.40
2022-08-22T00:29:21.469Z,0.43
2022-08-22T00:32:02.143Z,0.50
2022-08-22T00:34:43.725Z,0.30
2022-08-22T00:37:37.190Z,0.40
2022-08-22T00:40:49.394Z,0.50
2022-08-22T00:44:17.168Z,0.45
2022-08-22T00:47:42.985Z,0.40
2022-08-22T00:51:17.413Z,0.40
2022-08-22T00:53:53.982Z,0.43
2022-08-22T00:57:48.786Z,0.50
2022-08-22T01:00:24.946Z,0.40
2022-08-22T01:03:47.594Z,0.45
2022-08-22T01:06:32.356Z,0.43
2022-08-22T01:09:25.206Z,0.45
2022-08-22T01:12:51.749Z,0.43
2022-08-22T01:15:31.798Z,0.32
2022-08-22T01:18:55.164Z,0.47
2022-08-22T01:22:16.992Z,0.47
2022-08-22T01:25:43.840Z,0.40
2022-08-22T01:29:08.526Z,0.30
2022-08-22T01:32:32.520Z,0.50
2022-08-22T01:35:37.250Z,0.40
2022-08-22T01:38:37.370Z,0.30
2022-08-22T01:41:56.025Z,0.40
2022-08-22T01:45:00.961Z,0.40
2022-08-22T01:47:54.193Z,0.70
2022-08-22T01:50:38.572Z,0.40
2022-08-22T01:53:19.239Z,0.40
2022-08-22T01:56:07.690Z,0.40
2022-08-22T01:58:47.021Z,0.47
2022-08-22T02:01:41.203Z,0.50
2022-08-22T02:04:30.161Z,0.45
2022-08-22T02:07:15.436Z,0.47
2022-08-22T02:10:03.984Z,0.40
2022-08-22T02:12:46.391Z,0.30
2022-08-22T02:15:25.522Z,0.50
2022-08-22T02:18:22.262Z,0.60
2022-08-22T02:21:13.243Z,0.32
2022-08-22T02:26:39.520Z,0.40
2022-08-22T02:29:15.573Z,0.40
2022-08-22T02:31:58.288Z,0.40
2022-08-22T02:34:40.083Z,0.40
2022-08-22T02:37:23.819Z,0.43
2022-08-22T02:40:11.104Z,0.40
2022-08-22T02:42:51.806Z,0.32
2022-08-22T02:45:41.888Z,0.50
2022-08-22T02:48:32.900Z,0.50
2022-08-22T02:53:59.649Z,0.45
2022-08-22T02:56:42.472Z,0.45
2022-08-22T02:59:37.065Z,0.35
2022-08-22T03:02:39.029Z,0.40
2022-08-22T03:05:28.397Z,0.47
2022-08-22T03:08:15.002Z,0.40
2022-08-22T03:11:00.686Z,0.40
2022-08-22T03:13:49.443Z,0.30
2022-08-22T03:16:30.621Z,0.40
2022-08-22T03:19:19.000Z,0.50
2022-08-22T03:21:56.853Z,0.50
2022-08-22T03:24:35.280Z,0.50
2022-08-22T03:27:12.358Z,0.40
2022-08-22T03:30:06.026Z,0.57
2022-08-22T03:33:22.943Z,0.40
2022-08-22T03:36:13.846Z,0.40
2022-08-22T03:39:12.298Z,0.47
2022-08-22T03:42:22.386Z,0.43
2022-08-22T03:45:51.786Z,0.40
2022-08-22T03:49:07.888Z,0.43
2022-08-22T03:52:38.215Z,0.40
2022-08-22T03:55:31.480Z,0.40
2022-08-22T03:58:40.715Z,0.45
2022-08-22T04:01:55.375Z,0.45
2022-08-22T04:05:45.573Z,0.38
2022-08-22T04:09:02.794Z,0.35
2022-08-22T04:12:26.368Z,0.32
2022-08-22T04:15:55.889Z,0.32
2022-08-22T04:19:20.984Z,0.50
2022-08-22T04:22:27.286Z,0.32
2022-08-22T04:25:08.451Z,0.40
2022-08-22T04:28:01.586Z,0.50
2022-08-22T04:30:37.128Z,0.43
2022-08-22T04:33:23.527Z,0.40
2022-08-22T04:36:04.602Z,0.43
2022-08-22T04:38:44.858Z,0.40
2022-08-22T04:41:28.085Z,0.40
2022-08-22T04:44:09.570Z,0.32
2022-08-22T04:46:52.793Z,0.30
2022-08-22T04:49:37.453Z,0.40
2022-08-22T04:52:20.782Z,0.45
2022-08-22T04:55:17.625Z,0.40
2022-08-22T04:58:02.908Z,0.50
2022-08-22T05:00:50.325Z,0.40
2022-08-22T05:03:29.118Z,0.30
2022-08-22T05:06:08.378Z,0.40
2022-08-22T05:08:42.078Z,0.40
2022-08-22T05:11:20.899Z,0.40
2022-08-22T05:13:57.779Z,0.40
2022-08-22T05:16:35.882Z,0.40
2022-08-22T05:19:15.723Z,0.45
2022-08-22T05:21:50.866Z,0.40
2022-08-22T05:24:32.042Z,0.45
2022-08-22T05:27:18.033Z,0.47
2022-08-22T05:29:55.317Z,0.40
2022-08-22T05:32:32.401Z,0.40
2022-08-22T05:35:10.091Z,0.40
2022-08-22T05:37:50.862Z,0.40
2022-08-22T05:40:28.608Z,0.50
2022-08-22T05:43:03.182Z,0.32
2022-08-22T05:45:39.852Z,0.57
2022-08-22T05:48:18.678Z,0.50
2022-08-22T05:50:58.831Z,0.50
2022-08-22T05:53:46.808Z,0.40
2022-08-22T05:56:38.090Z,0.50
2022-08-22T05:59:38.785Z,0.50
2022-08-22T06:02:21.337Z,0.50
2022-08-22T06:05:11.880Z,0.60
2022-08-22T06:07:48.160Z,0.40
2022-08-22T06:10:28.101Z,0.50
2022-08-22T06:13:05.777Z,0.40
2022-08-22T06:15:55.896Z,0.40
2022-08-22T06:18:42.699Z,0.47
2022-08-22T06:21:18.731Z,0.40
2022-08-22T06:23:53.219Z,0.50
2022-08-22T06:26:22.499Z,0.35
2022-08-22T06:28:55.228Z,0.50
2022-08-22T06:31:31.516Z,0.40
2022-08-22T06:34:05.748Z,0.25
2022-08-22T06:36:38.972Z,0.43
2022-08-22T06:39:18.511Z,0.40
2022-08-22T06:41:53.782Z,0.40
2022-08-22T06:44:27.125Z,0.45
2022-08-22T06:47:01.534Z,0.43
2022-08-22T06:49:34.474Z,0.43
2022-08-22T06:52:08.460Z,0.30
2022-08-22T06:54:44.218Z,0.32
2022-08-22T06:57:30.965Z,0.32
2022-08-22T07:00:01.619Z,0.40
2022-08-22T07:02:37.751Z,0.40
2022-08-22T07:05:09.773Z,0.30
2022-08-22T07:07:38.228Z,0.40
2022-08-22T07:10:07.180Z,0.43
2022-08-22T07:12:39.124Z,0.30
2022-08-22T07:15:21.025Z,0.90
2022-08-22T07:17:54.819Z,1.30
2022-08-22T07:20:29.554Z,1.65
2022-08-22T07:23:01.495Z,1.73
2022-08-22T07:25:31.675Z,1.65
2022-08-22T07:28:37.022Z,2.40
2022-08-22T07:31:33.383Z,2.30
2022-08-22T07:34:25.659Z,2.08
2022-08-22T07:37:05.713Z,2.40
2022-08-22T07:39:39.213Z,2.60
2022-08-22T07:42:15.608Z,2.67
2022-08-22T07:45:06.861Z,2.53
2022-08-22T07:47:54.447Z,2.53
2022-08-22T07:50:31.109Z,2.13
2022-08-22T07:53:13.446Z,2.30
2022-08-22T07:55:49.361Z,2.60
2022-08-22T07:58:19.992Z,1.83
2022-08-22T08:00:51.357Z,2.40
2022-08-22T08:03:25.067Z,2.78
2022-08-22T08:05:55.421Z,2.25
2022-08-22T08:08:28.852Z,2.30
2022-08-22T08:11:00.659Z,1.92
2022-08-22T08:13:35.100Z,1.98
2022-08-22T08:16:07.188Z,1.80
2022-08-22T08:18:38.761Z,2.03
2022-08-22T08:21:15.826Z,2.75
2022-08-22T08:23:48.263Z,1.80
2022-08-22T08:26:21.979Z,1.50
2022-08-22T08:28:53.231Z,2.00
2022-08-22T08:31:27.079Z,1.88
2022-08-22T08:34:05.140Z,1.60
2022-08-22T08:36:48.747Z,1.70
2022-08-22T08:39:24.140Z,1.80
2022-08-22T08:42:23.212Z,1.80
2022-08-22T08:45:26.312Z,1.88
2022-08-22T08:48:24.242Z,2.30
2022-08-22T08:51:19.693Z,1.48
2022-08-22T08:54:27.323Z,1.92
2022-08-22T08:57:08.516Z,1.27
2022-08-22T09:00:03.456Z,1.55
2022-08-22T09:02:51.096Z,1.40
2022-08-22T09:05:54.097Z,1.40
2022-08-22T09:08:56.933Z,1.15
2022-08-22T09:12:09.385Z,1.48
2022-08-22T09:14:57.539Z,1.30
2022-08-22T09:18:28.230Z,1.27
2022-08-22T09:21:30.542Z,1.13
2022-08-22T09:24:59.354Z,1.35
2022-08-22T09:27:37.172Z,1.30
2022-08-22T09:30:12.279Z,1.40
2022-08-22T09:32:54.660Z,1.15
2022-08-22T09:35:41.047Z,1.15
2022-08-22T09:38:48.044Z,1.20
2022-08-22T09:41:39.960Z,1.15
2022-08-22T09:44:20.371Z,1.17
2022-08-22T09:47:04.398Z,1.30
2022-08-22T09:49:53.253Z,1.05
2022-08-22T09:52:54.701Z,1.15
2022-08-22T09:58:21.356Z,0.98
2022-08-22T10:00:56.966Z,1.20
2022-08-22T10:04:20.003Z,1.20
2022-08-22T10:07:02.951Z,1.08
2022-08-22T10:09:46.980Z,1.20
2022-08-22T10:12:33.864Z,1.15
2022-08-22T10:15:20.240Z,0.95
2022-08-22T10:18:10.323Z,0.93
2022-08-22T10:20:56.145Z,0.93
2022-08-22T10:23:34.563Z,1.23
2022-08-22T10:26:22.656Z,1.10
2022-08-22T10:29:04.149Z,1.17
2022-08-22T10:31:52.740Z,0.88
2022-08-22T10:34:34.916Z,1.13
2022-08-22T10:37:23.827Z,0.90
2022-08-22T10:40:03.182Z,1.10
2022-08-22T10:42:37.778Z,1.20
2022-08-22T10:45:36.244Z,1.55
2022-08-22T10:48:35.097Z,1.35
2022-08-22T10:51:22.956Z,1.02
2022-08-22T10:54:19.996Z,0.95
2022-08-22T10:57:00.556Z,1.02
2022-08-22T10:59:44.633Z,0.80
2022-08-22T11:02:36.621Z,0.95
2022-08-22T11:05:33.462Z,0.98
2022-08-22T11:08:34.855Z,0.80
2022-08-22T11:11:41.387Z,0.70
2022-08-22T11:14:42.209Z,0.80
2022-08-22T11:17:54.943Z,1.17
2022-08-22T11:20:31.909Z,1.00
2022-08-22T11:23:23.644Z,0.75
2022-08-22T11:26:06.443Z,0.70
2022-08-22T11:29:14.009Z,1.17
2022-08-22T11:31:54.128Z,0.90
2022-08-22T11:34:41.171Z,0.90
2022-08-22T11:37:43.343Z,1.10
2022-08-22T11:40:31.521Z,0.80
2022-08-22T11:43:25.727Z,0.93
2022-08-22T11:45:58.719Z,0.90
2022-08-22T11:48:42.045Z,0.93
2022-08-22T11:51:35.025Z,0.70
2022-08-22T11:54:12.975Z,0.75
2022-08-22T11:56:50.107Z,0.80
2022-08-22T11:59:30.791Z,0.80
2022-08-22T12:02:05.616Z,1.00
2022-08-22T12:04:44.178Z,0.63
2022-08-22T12:07:16.588Z,0.80
2022-08-22T12:09:55.141Z,0.63
2022-08-22T12:12:51.044Z,0.80
2022-08-22T12:15:25.104Z,0.70
2022-08-22T12:18:46.871Z,0.70
2022-08-22T12:22:17.855Z,1.00
2022-08-22T12:25:08.642Z,0.77
2022-08-22T12:27:56.515Z,0.65
2022-08-22T12:30:36.091Z,0.80
2022-08-22T12:33:31.869Z,0.73
2022-08-22T12:36:20.928Z,0.60
2022-08-22T12:39:15.320Z,0.70
2022-08-22T12:42:13.360Z,0.80
2022-08-22T12:45:08.425Z,0.52
2022-08-22T12:47:55.348Z,0.75
2022-08-22T12:50:41.333Z,0.80
2022-08-22T12:53:43.932Z,0.75
2022-08-22T12:56:31.625Z,0.77
2022-08-22T12:59:23.882Z,0.90
2022-08-22T13:02:00.772Z,0.80
2022-08-22T13:04:34.242Z,0.73
2022-08-22T13:07:11.101Z,0.70
2022-08-22T13:09:43.284Z,0.70
2022-08-22T13:12:25.664Z,0.80
2022-08-22T13:15:00.932Z,0.68
2022-08-22T13:17:31.780Z,1.00
2022-08-22T13:20:13.539Z,0.75
2022-08-22T13:22:45.658Z,0.70
2022-08-22T13:25:26.045Z,0.70
2022-08-22T13:27:59.345Z,0.70
2022-08-22T13:30:33.243Z,0.80
2022-08-22T13:33:11.091Z,0.85
2022-08-22T13:35:51.665Z,0.60
2022-08-22T13:38:28.861Z,0.85
2022-08-22T13:40:59.474Z,0.60
2022-08-22T13:43:33.816Z,0.60
2022-08-22T13:46:06.277Z,0.65
2022-08-22T13:48:57.770Z,0.88
2022-08-22T13:51:41.106Z,0.70
2022-08-22T13:54:40.194Z,0.65
2022-08-22T13:57:19.064Z,0.50
2022-08-22T14:00:06.226Z,0.73
2022-08-22T14:02:54.636Z,0.73
2022-08-22T14:05:30.925Z,0.50
2022-08-22T14:08:13.999Z,0.70
2022-08-22T14:10:55.182Z,0.70
2022-08-22T14:13:45.208Z,0.50
2022-08-22T14:16:22.047Z,0.57
2022-08-22T14:18:54.795Z,0.70
2022-08-22T14:21:40.258Z,0.45
2022-08-22T14:24:19.535Z,0.52
2022-08-22T14:26:59.467Z,0.40
2022-08-22T14:29:45.458Z,0.50
2022-08-22T14:32:43.194Z,0.50
2022-08-22T14:35:23.508Z,0.68
2022-08-22T14:38:20.141Z,0.60
2022-08-22T14:40:54.960Z,0.50
2022-08-22T14:43:49.265Z,0.60
2022-08-22T14:46:26.732Z,0.50
2022-08-22T14:49:34.764Z,0.70
2022-08-22T14:52:19.550Z,0.60
2022-08-22T14:54:50.973Z,0.60
2022-08-22T14:57:20.081Z,0.55
2022-08-22T14:59:52.523Z,0.50
2022-08-22T15:02:28.393Z,0.60
2022-08-22T15:05:01.481Z,0.65
2022-08-22T15:07:37.452Z,0.68
2022-08-22T15:10:20.757Z,0.63
2022-08-22T15:12:53.942Z,0.52
2022-08-22T15:15:49.653Z,0.40
2022-08-22T15:18:36.933Z,0.50
2022-08-22T15:21:10.078Z,0.50
2022-08-22T15:23:45.176Z,0.45
2022-08-22T15:26:26.804Z,0.60
2022-08-22T15:29:18.367Z,0.68
2022-08-22T15:31:52.533Z,0.63
2022-08-22T15:34:32.794Z,0.50
2022-08-22T15:37:28.698Z,0.60
2022-08-22T15:40:13.309Z,0.50
2022-08-22T15:42:46.664Z,0.50
2022-08-22T15:45:31.114Z,0.40
2022-08-22T15:48:07.532Z,0.68
2022-08-22T15:50:41.972Z,0.50
2022-08-22T15:53:22.694Z,0.75
2022-08-22T15:56:24.629Z,0.68
2022-08-22T15:59:53.457Z,0.57
2022-08-22T16:02:33.285Z,0.80
2022-08-22T16:05:27.009Z,0.50
2022-08-22T16:08:05.933Z,0.70
2022-08-22T16:10:40.400Z,0.70
2022-08-22T16:13:34.566Z,0.65
2022-08-22T16:16:12.056Z,0.40
2022-08-22T16:19:23.487Z,0.60
2022-08-22T16:22:14.138Z,0.70
2022-08-22T16:25:06.780Z,0.60
2022-08-22T16:27:53.089Z,0.60
2022-08-22T16:30:37.525Z,0.60
2022-08-22T16:33:18.029Z,0.68
2022-08-22T16:36:40.417Z,0.45
2022-08-22T16:39:32.288Z,0.60
2022-08-22T16:42:36.690Z,0.55
2022-08-22T16:45:34.745Z,0.50
2022-08-22T16:48:27.673Z,0.60
2022-08-22T16:51:14.424Z,0.60
2022-08-22T16:54:12.819Z,0.57
2022-08-22T16:56:51.424Z,0.60
2022-08-22T16:59:42.892Z,0.73
2022-08-22T17:02:49.683Z,0.88
2022-08-22T17:05:47.047Z,0.47
2022-08-22T17:08:34.969Z,0.50
2022-08-22T17:11:25.432Z,0.50
2022-08-22T17:14:09.926Z,0.40
2022-08-22T17:16:56.193Z,0.70
2022-08-22T17:19:48.630Z,0.40
2022-08-22T17:22:33.124Z,0.60
2022-08-22T17:25:21.188Z,0.60
2022-08-22T17:28:07.562Z,0.60
2022-08-22T17:30:47.118Z,0.50
2022-08-22T17:33:31.366Z,0.80
2022-08-22T17:36:27.120Z,0.40
2022-08-22T17:39:13.547Z,0.60
2022-08-22T17:41:51.891Z,0.50
2022-08-22T17:44:32.993Z,0.65
2022-08-22T17:47:09.158Z,0.50
2022-08-22T17:49:55.054Z,0.43
2022-08-22T17:52:35.951Z,0.60
2022-08-22T17:57:52.751Z,0.50
2022-08-22T18:00:31.106Z,0.40
2022-08-22T18:03:08.983Z,0.57
2022-08-22T18:05:47.884Z,0.52
2022-08-22T18:08:37.846Z,0.50
2022-08-22T18:11:14.701Z,0.60
2022-08-22T18:13:53.130Z,0.70
2022-08-22T18:16:29.430Z,0.57
2022-08-22T18:19:07.668Z,0.43
2022-08-22T18:21:42.997Z,0.60
2022-08-22T18:24:23.333Z,0.40
2022-08-22T18:27:06.956Z,0.50
2022-08-22T18:29:47.610Z,0.50
2022-08-22T18:32:26.625Z,0.50
2022-08-22T18:35:04.403Z,0.40
2022-08-22T18:37:53.022Z,0.50
2022-08-22T18:40:50.289Z,0.50
2022-08-22T18:43:24.246Z,0.30
2022-08-22T18:46:04.383Z,0.40
2022-08-22T18:48:59.418Z,0.50
2022-08-22T18:51:34.863Z,0.68
2022-08-22T18:54:37.937Z,0.57
2022-08-22T18:57:30.683Z,0.40
2022-08-22T19:00:11.253Z,0.50
2022-08-22T19:03:10.387Z,0.40
2022-08-22T19:06:12.029Z,0.47
2022-08-22T19:09:06.014Z,0.50
2022-08-22T19:11:54.159Z,0.50
2022-08-22T19:14:44.414Z,0.50
2022-08-22T19:17:42.940Z,0.50
2022-08-22T19:20:44.077Z,0.50
2022-08-22T19:23:50.194Z,0.60
2022-08-22T19:26:39.434Z,0.40
2022-08-22T19:29:41.992Z,0.45
2022-08-22T19:32:33.635Z,0.50
2022-08-22T19:35:21.816Z,0.50
2022-08-22T19:37:55.967Z,0.40
2022-08-22T19:40:56.143Z,0.60
2022-08-22T19:43:40.871Z,0.50
2022-08-22T19:46:12.744Z,0.57
2022-08-22T19:48:50.006Z,0.50
2022-08-22T19:51:30.223Z,0.68
2022-08-22T19:54:20.351Z,0.40
2022-08-22T19:57:10.745Z,0.50
2022-08-22T19:59:53.016Z,0.40
2022-08-22T20:02:35.546Z,0.60
2022-08-22T20:05:21.374Z,0.30
2022-08-22T20:08:25.526Z,0.40
2022-08-22T20:11:15.757Z,0.55
2022-08-22T20:13:45.457Z,0.68
2022-08-22T20:16:20.838Z,0.70
2022-08-22T20:19:13.654Z,0.57
2022-08-22T20:21:54.935Z,0.52
2022-08-22T20:24:39.784Z,0.40
2022-08-22T20:27:16.108Z,0.50
2022-08-22T20:29:52.230Z,0.45
2022-08-22T20:32:25.088Z,0.50
2022-08-22T20:34:59.321Z,0.40
2022-08-22T20:38:03.363Z,0.55
2022-08-22T20:40:57.330Z,0.50
2022-08-22T20:43:37.005Z,0.40
2022-08-22T20:46:24.450Z,0.50
2022-08-22T20:48:57.093Z,0.40
2022-08-22T20:51:29.283Z,0.68
2022-08-22T20:53:59.920Z,0.70
2022-08-22T20:56:48.667Z,0.60
2022-08-22T20:59:37.018Z,0.60
2022-08-22T21:02:15.737Z,0.43
2022-08-22T21:04:53.229Z,0.40
2022-08-22T21:07:28.117Z,0.40
2022-08-22T21:10:22.811Z,0.52
2022-08-22T21:13:12.410Z,0.52
2022-08-22T21:15:43.745Z,0.50
2022-08-22T21:18:13.629Z,0.50
2022-08-22T21:20:42.115Z,0.50
2022-08-22T21:23:15.390Z,0.50
2022-08-22T21:25:56.660Z,0.60
2022-08-22T21:28:36.797Z,0.40
2022-08-22T21:31:14.822Z,0.60
2022-08-22T21:33:49.462Z,0.50
2022-08-22T21:36:21.536Z,0.93
2022-08-22T21:38:54.737Z,0.50
2022-08-22T21:41:32.847Z,0.38
2022-08-22T21:44:28.455Z,0.50
2022-08-22T21:46:57.710Z,0.45
2022-08-22T21:49:30.255Z,0.50
2022-08-22T21:51:58.088Z,0.60
2022-08-22T21:54:43.769Z,0.50
2022-08-22T21:57:36.684Z,0.43
2022-08-22T22:00:31.559Z,0.95
2022-08-22T22:03:02.861Z,0.45
2022-08-22T22:05:30.942Z,0.50
2022-08-22T22:07:58.783Z,0.40
2022-08-22T22:10:27.021Z,0.40
2022-08-22T22:12:58.636Z,0.50
2022-08-22T22:15:34.990Z,0.50
2022-08-22T22:18:02.741Z,0.60
2022-08-22T22:20:30.598Z,0.50
2022-08-22T22:22:58.830Z,0.50
2022-08-22T22:25:38.868Z,0.50
2022-08-22T22:28:12.229Z,0.55
2022-08-22T22:30:42.812Z,0.60
2022-08-22T22:33:11.006Z,0.50
2022-08-22T22:35:41.096Z,0.30
2022-08-22T22:38:10.042Z,0.40
2022-08-22T22:40:38.194Z,0.45
2022-08-22T22:43:06.205Z,0.50
2022-08-22T22:45:34.113Z,0.52
2022-08-22T22:48:03.899Z,0.50
2022-08-22T22:50:32.167Z,0.57
2022-08-22T22:53:00.439Z,0.40
2022-08-22T22:55:28.222Z,0.73
2022-08-22T22:57:58.933Z,0.70
2022-08-22T23:00:30.726Z,0.50
2022-08-22T23:03:00.957Z,0.40
2022-08-22T23:05:31.479Z,0.60
2022-08-22T23:08:00.624Z,0.63
2022-08-22T23:10:30.651Z,0.40
2022-08-22T23:12:58.981Z,0.40
2022-08-22T23:15:27.778Z,0.47
2022-08-22T23:17:56.026Z,0.50
2022-08-22T23:20:24.521Z,0.50
2022-08-22T23:22:53.797Z,0.47
2022-08-22T23:25:21.692Z,0.43
2022-08-22T23:27:52.244Z,0.70
2022-08-22T23:30:21.162Z,0.50
2022-08-22T23:32:49.312Z,0.35
2022-08-22T23:35:17.262Z,0.60
2022-08-22T23:37:45.072Z,0.65
2022-08-22T23:40:14.515Z,0.70
2022-08-22T23:42:43.029Z,0.30
2022-08-22T23:45:11.158Z,0.50
2022-08-22T23:47:38.961Z,0.40
2022-08-22T23:50:07.499Z,0.57
2022-08-22T23:52:35.414Z,0.40
2022-08-22T23:55:03.289Z,0.40
2022-08-22T23:57:32.640Z,0.40
